Latest Weather Observations for Mount Boyce

IDN60801

Issued at 8:42 pm EST Monday 22 April 2019 (issued every 10 minutes, with the page automatically refreshed every 10 minutes)

About weather observations | Map of weather stations | Latest weather observations for NSW | Other Formats
Station Details ID: 063292 Name: MOUNT BOYCE AWS Lat: -33.62 Lon: 150.27 Height: 1080.0 m
Data from the previous 72 hours. | See also: Recent months at Mount Boyce
Date/Time
EST
Temp
°C
App
Temp
°C
Dew
Point
°C
Rel
Hum
%
Delta-T
°C
Wind Press
QNH
hPa
Press
MSL
hPa
Rain since
9am
mm
Dir  Spd
km/h
Gust
km/h
Spd
kts
Gust
kts
22/08:30pm 13.8 14.0 13.2 96 0.3 E 4 9 2 5 - - 0.0
22/08:04pm 13.2 12.2 12.4 95 0.5 ENE 9 15 5 8 - - 0.0
22/08:00pm 13.1 12.1 12.3 95 0.5 ENE 9 13 5 7 - - 0.0
22/07:56pm 13.1 12.1 12.3 95 0.5 ENE 9 15 5 8 - - 0.0
22/07:30pm 12.9 12.1 11.8 93 0.6 ENE 7 11 4 6 - - 0.0
22/07:00pm 12.9 12.0 11.5 91 0.8 ENE 7 11 4 6 - - 0.0
22/06:30pm 13.2 12.5 11.3 88 1.1 ENE 6 9 3 5 - - 0.0
22/06:00pm 14.0 12.8 11.7 86 1.3 ENE 9 13 5 7 - - 0.0
22/05:30pm 14.8 13.7 11.9 83 1.7 ENE 9 13 5 7 - - 0.0
22/05:00pm 15.9 15.0 12.5 80 2.0 ENE 9 15 5 8 - - 0.0
22/04:30pm 18.0 17.8 13.1 73 2.9 E 6 17 3 9 - - 0.0
22/04:00pm 19.2 18.6 13.6 70 3.4 E 9 15 5 8 - - 0.0
22/03:30pm 18.9 18.7 13.5 71 3.2 E 7 15 4 8 - - 0.0
22/03:00pm 19.1 18.9 13.7 71 3.2 ENE 7 13 4 7 - - 0.0
22/02:30pm 19.2 18.8 14.0 72 3.1 E 9 17 5 9 - - 0.0
22/02:00pm 18.8 18.1 13.2 70 3.3 ESE 9 15 5 8 - - 0.0
22/01:30pm 20.4 20.0 12.4 60 4.7 SE 6 11 3 6 - - 0.0
22/01:00pm 20.9 20.1 11.0 53 5.7 NW 6 9 3 5 - - 0.0
22/12:30pm 19.9 18.2 11.1 57 5.1 W 11 19 6 10 - - 0.0
22/12:00pm 19.1 18.2 11.4 61 4.4 WNW 7 11 4 6 - - 0.0
22/11:30am 18.2 16.6 11.7 66 3.8 W 11 15 6 8 - - 0.0
22/11:00am 17.8 16.7 12.0 69 3.4 WNW 9 13 5 7 - - 0.0
22/10:30am 17.6 17.3 13.3 76 2.6 W 7 11 4 6 - - 0.0
22/10:00am 16.3 16.0 12.8 80 2.0 W 6 7 3 4 - - 0.0
22/09:30am 16.8 17.7 12.9 78 2.3 CALM 0 0 0 0 - - 0.0
22/09:00am 16.7 17.8 13.4 81 2.0 CALM 0 6 0 3 - - 0.2
22/08:30am 15.2 16.3 13.6 90 0.9 CALM 0 0 0 0 - - 0.2
22/08:00am 14.0 14.6 13.2 95 0.5 ENE 2 7 1 4 - - 0.2
22/07:30am 13.0 13.7 12.2 95 0.5 CALM 0 6 0 3 - - 0.2
22/07:00am 12.7 13.4 12.1 96 0.3 CALM 0 0 0 0 - - 0.2
22/06:43am 12.5 13.0 11.7 95 0.4 CALM 0 0 0 0 - - 0.2
22/06:30am 12.5 13.1 11.9 96 0.3 CALM 0 0 0 0 - - 0.2
22/06:24am 12.5 13.0 11.7 95 0.4 CALM 0 0 0 0 - - 0.2
22/06:00am 12.4 12.9 11.5 94 0.5 CALM 0 0 0 0 - - 0.2
22/05:30am 12.3 12.7 11.4 94 0.5 CALM 0 0 0 0 - - 0.2
22/05:00am 12.3 11.6 11.4 94 0.5 ENE 6 7 3 4 - - 0.2
22/04:30am 12.7 13.4 12.1 96 0.3 CALM 0 0 0 0 - - 0.2
22/04:00am 12.6 12.1 12.0 96 0.3 ENE 6 7 3 4 - - 0.2
22/03:55am 12.6 12.1 12.0 96 0.3 ENE 6 9 3 5 - - 0.2
22/03:30am 12.6 11.5 11.8 95 0.5 ENE 9 13 5 7 - - 0.2
22/03:06am 12.8 12.3 12.2 96 0.3 ENE 6 9 3 5 - - 0.2
22/03:00am 12.8 12.7 12.2 96 0.3 ENE 4 11 2 6 - - 0.2
22/02:30am 12.9 12.5 12.3 96 0.3 ENE 6 9 3 5 - - 0.2
22/02:00am 12.8 11.7 12.0 95 0.5 ENE 9 13 5 7 - - 0.2
22/01:48am 12.8 11.7 12.0 95 0.5 ENE 9 15 5 8 - - 0.2
22/01:30am 13.1 12.5 12.2 94 0.5 NE 7 11 4 6 - - 0.2
22/01:13am 13.3 12.9 12.5 95 0.5 NE 6 9 3 5 - - 0.2
22/01:00am 13.5 13.2 12.7 95 0.5 NNE 6 9 3 5 - - 0.2
22/12:41am 13.4 13.0 12.5 94 0.5 N 6 9 3 5 - - 0.2
22/12:30am 13.5 13.6 12.6 94 0.5 NNE 4 9 2 5 - - 0.2
22/12:26am 13.5 13.9 12.6 94 0.5 NNE 2 7 1 4 - - 0.2
22/12:14am 13.6 14.1 12.7 94 0.5 NNE 2 7 1 4 - - 0.2
22/12:00am 13.8 14.3 12.9 94 0.5 N 2 9 1 5 - - 0.2
 
Date/Time
EST
Temp
°C
App
Temp
°C
Dew
Point
°C
Rel
Hum
%
Delta-T
°C
Wind Press
QNH
hPa
Press
MSL
hPa
Rain since
9am
mm
Dir  Spd
km/h
Gust
km/h
Spd
kts
Gust
kts
21/11:45pm 13.9 14.4 12.8 93 0.6 N 2 7 1 4 - - 0.2
21/11:30pm 14.1 15.1 13.1 94 0.6 CALM 0 6 0 3 - - 0.2
21/11:00pm 14.2 14.9 13.4 95 0.5 NE 2 9 1 5 - - 0.2
21/10:30pm 14.2 14.1 13.4 95 0.5 ENE 6 13 3 7 - - 0.2
21/10:00pm 14.2 13.9 13.2 94 0.6 ENE 7 13 4 7 - - 0.2
21/09:30pm 14.4 14.3 13.4 94 0.6 ENE 6 11 3 6 - - 0.2
21/09:00pm 14.6 14.4 13.6 94 0.6 ENE 7 13 4 7 - - 0.2
21/08:30pm 14.7 14.2 13.7 94 0.6 ENE 9 13 5 7 - - 0.2
21/08:00pm 14.5 13.9 13.4 93 0.6 ENE 9 13 5 7 - - 0.2
21/07:30pm 14.5 14.1 13.0 91 0.9 ENE 7 11 4 6 - - 0.2
21/07:00pm 14.9 14.6 13.3 90 0.9 ENE 7 11 4 6 - - 0.2
21/06:30pm 15.7 15.9 14.1 90 1.0 ENE 6 11 3 6 - - 0.2
21/06:00pm 16.0 16.1 14.4 90 1.0 ENE 7 13 4 7 - - 0.2
21/05:30pm 16.4 16.5 14.4 88 1.2 ENE 7 11 4 6 - - 0.2
21/05:00pm 17.1 17.5 14.7 86 1.5 E 6 11 3 6 - - 0.2
21/04:31pm 17.4 18.2 14.7 84 1.6 ESE 4 9 2 5 - - 0.2
21/04:30pm 17.5 18.3 14.8 84 1.6 ESE 4 9 2 5 - - 0.2
21/04:26pm 17.5 17.9 14.8 84 1.6 E 6 9 3 5 - - 0.2
21/04:05pm 17.9 18.6 14.6 81 2.0 NE 4 9 2 5 - - 0.2
21/04:00pm 18.0 18.4 14.7 81 2.0 ENE 6 11 3 6 - - 0.2
21/03:30pm 19.0 19.3 15.1 78 2.4 ENE 7 13 4 7 - - 0.2
21/03:00pm 20.3 20.3 15.1 72 3.2 ENE 9 15 5 8 - - 0.2
21/02:30pm 20.8 20.7 14.9 69 3.6 ENE 9 17 5 9 - - 0.2
21/02:00pm 20.3 20.4 14.4 69 3.6 ENE 7 17 4 9 - - 0.2
21/01:30pm 19.1 18.9 13.5 70 3.4 E 7 13 4 7 - - 0.2
21/01:00pm 19.8 19.8 13.7 68 3.7 E 6 11 3 6 - - 0.2
21/12:30pm 19.4 19.8 13.6 69 3.5 ENE 4 13 2 7 - - 0.2
21/12:00pm 19.1 19.0 13.9 72 3.1 E 7 11 4 6 - - 0.2
21/11:30am 19.3 19.7 11.3 60 4.6 CALM 0 0 0 0 - - 0.2
21/11:00am 19.7 19.6 12.0 61 4.5 NW 4 7 2 4 - - 0.0
21/10:30am 20.2 20.3 12.7 62 4.5 NE 4 9 2 5 - - 0.0
21/10:00am 19.1 18.8 12.6 66 3.8 ENE 6 9 3 5 - - 0.0
21/09:30am 18.2 17.8 12.9 71 3.1 NNE 7 15 4 8 - - 0.0
21/09:00am 17.6 16.6 13.3 76 2.6 NE 11 17 6 9 - - 0.0
21/08:30am 16.0 15.0 13.5 85 1.5 ENE 11 19 6 10 - - 0.0
21/08:00am 13.6 12.4 12.8 95 0.5 ENE 11 15 6 8 - - 0.0
21/07:30am 12.7 11.7 12.2 97 0.3 ENE 9 17 5 9 - - 0.0
21/07:22am 12.6 11.2 12.1 97 0.3 ENE 11 17 6 9 - - 0.0
21/07:00am 11.9 10.6 11.4 97 0.3 ENE 9 15 5 8 - - 0.0
21/06:30am 11.8 10.1 11.3 97 0.3 ENE 11 19 6 10 - - 0.0
21/06:21am 11.8 10.1 11.3 97 0.3 NE 11 20 6 11 - - 0.0
21/06:11am 11.8 9.7 11.3 97 0.3 NE 13 22 7 12 - - 0.0
21/06:00am 11.7 10.0 11.2 97 0.3 ENE 11 15 6 8 - - 0.0
21/05:30am 11.5 10.1 10.9 96 0.3 ENE 9 13 5 7 - - 0.0
21/05:00am 11.5 9.7 10.9 96 0.3 ENE 11 15 6 8 - - 0.0
21/04:48am 11.5 10.1 10.9 96 0.3 ENE 9 17 5 9 - - 0.0
21/04:30am 11.6 10.2 10.8 95 0.4 ENE 9 15 5 8 - - 0.0
21/04:00am 12.1 11.4 11.3 95 0.4 ENE 6 13 3 7 - - 0.0
21/03:50am 12.3 11.6 11.5 95 0.4 NE 6 13 3 7 - - 0.0
21/03:37am 12.3 11.4 11.5 95 0.4 NE 7 11 4 6 - - 0.0
21/03:30am 12.4 11.5 11.5 94 0.5 NE 7 13 4 7 - - 0.0
21/03:00am 12.8 11.7 11.9 94 0.5 NE 9 17 5 9 - - 0.0
21/02:47am 13.1 12.1 12.2 94 0.5 NE 9 17 5 9 - - 0.0
21/02:30am 13.3 12.8 12.5 95 0.5 NE 7 13 4 7 - - 0.0
21/02:00am 13.5 13.2 12.7 95 0.5 ENE 6 11 3 6 - - 0.0
21/01:30am 13.6 13.1 12.8 95 0.5 ENE 7 13 4 7 - - 0.0
21/01:00am 13.5 13.0 12.6 94 0.5 ENE 7 17 4 9 - - 0.0
21/12:30am 13.9 13.7 13.0 94 0.5 ENE 6 11 3 6 - - 0.0
21/12:00am 13.9 13.7 13.0 94 0.5 NE 6 11 3 6 - - 0.0
 
Date/Time
EST
Temp
°C
App
Temp
°C
Dew
Point
°C
Rel
Hum
%
Delta-T
°C
Wind Press
QNH
hPa
Press
MSL
hPa
Rain since
9am
mm
Dir  Spd
km/h
Gust
km/h
Spd
kts
Gust
kts
20/11:30pm 14.1 13.9 13.1 94 0.6 ENE 6 13 3 7 - - 0.0
20/11:00pm 14.0 13.6 13.1 94 0.5 NE 7 13 4 7 - - 0.0
20/10:30pm 14.1 13.8 13.3 95 0.5 NE 7 15 4 8 - - 0.0
20/10:00pm 14.2 13.9 13.4 95 0.5 ENE 7 17 4 9 - - 0.0
20/09:30pm 14.2 13.9 13.4 95 0.5 ENE 7 13 4 7 - - 0.0
20/09:00pm 14.0 13.7 13.2 95 0.5 ENE 7 13 4 7 - - 0.0
20/08:30pm 14.0 13.3 13.1 94 0.5 ENE 9 13 5 7 - - 0.0
20/08:00pm 14.2 13.5 13.2 94 0.6 ENE 9 17 5 9 - - 0.0
20/07:30pm 14.0 13.6 13.1 94 0.5 ENE 7 13 4 7 - - 0.0
20/07:00pm 14.0 13.3 13.1 94 0.5 ENE 9 15 5 8 - - 0.0
20/06:59pm 14.0 13.3 13.1 94 0.5 ENE 9 15 5 8 - - 0.0
20/06:51pm 13.7 12.7 12.4 92 0.7 ENE 9 13 5 7 - - 0.0
20/06:30pm 13.9 13.4 12.5 91 0.8 ENE 7 15 4 8 - - 0.0
20/06:00pm 14.3 13.4 12.5 89 1.0 ENE 9 17 5 9 - - 0.0
20/05:30pm 15.2 14.4 11.8 80 1.9 ENE 7 11 4 6 - - 0.0
20/05:00pm 16.5 15.8 12.1 75 2.5 ENE 7 15 4 8 - - 0.0
20/04:30pm 17.9 16.9 12.4 70 3.2 ENE 9 17 5 9 - - 0.0
20/04:00pm 19.2 18.9 13.2 68 3.6 ENE 7 13 4 7 - - 0.0
20/03:30pm 19.0 18.1 12.7 67 3.7 ENE 9 15 5 8 - - 0.0
20/03:00pm 19.7 18.8 12.7 64 4.1 ENE 9 17 5 9 - - 0.0
20/02:30pm 19.4 17.8 11.4 60 4.6 ENE 11 19 6 10 - - 0.0
20/02:00pm 19.5 18.0 11.8 61 4.5 NE 11 19 6 10 - - 0.0
20/01:30pm 20.3 20.1 13.5 65 4.1 ENE 7 13 4 7 - - 0.0
20/01:00pm 19.4 18.5 12.7 65 4.0 E 9 17 5 9 - - 0.0
20/12:30pm 19.6 18.5 12.1 62 4.4 NE 9 19 5 10 - - 0.0
20/12:00pm 19.4 18.2 12.9 66 3.9 NNE 11 19 6 10 - - 0.0
20/11:30am 19.4 18.5 12.7 65 4.0 NE 9 19 5 10 - - 0.0
20/11:00am 18.7 17.7 12.2 66 3.8 ENE 9 17 5 9 - - 0.0
20/10:30am 17.8 16.8 12.3 70 3.2 NE 9 19 5 10 - - 0.0
20/10:00am 17.4 16.4 13.3 77 2.4 NE 11 20 6 11 - - 0.0
20/09:40am 16.3 15.1 12.8 80 2.0 NE 11 19 6 10 - - 0.0
20/09:30am 16.0 15.0 13.3 84 1.6 NE 11 17 6 9 - - 0.0
20/09:15am 15.2 14.5 13.2 88 1.2 NE 9 22 5 12 - - 0.0
20/09:00am 14.4 14.3 13.8 96 0.4 ENE 7 17 4 9 - - 0.2
20/08:46am 13.9 13.3 13.4 97 0.3 NE 9 19 5 10 - - 0.2
20/08:30am 14.2 13.4 13.9 98 0.2 NE 11 20 6 11 - - 0.2
20/08:06am 13.8 13.2 13.5 98 0.2 NE 9 17 5 9 - - 0.2
20/08:00am 13.5 13.2 13.2 98 0.2 NE 7 13 4 7 - - 0.2
20/07:51am 13.2 12.8 12.9 98 0.2 NE 7 13 4 7 - - 0.2
20/07:40am 12.7 11.7 12.4 98 0.2 ENE 9 13 5 7 - - 0.2
20/07:30am 12.4 11.9 12.1 98 0.2 NE 6 13 3 7 - - 0.2
20/07:00am 11.2 10.3 10.7 97 0.3 ENE 6 9 3 5 - - 0.2
20/06:30am 10.9 10.3 10.4 97 0.3 ENE 4 9 2 5 - - 0.2
20/06:00am 10.8 9.6 10.2 96 0.3 ENE 7 11 4 6 - - 0.2
20/05:30am 11.0 10.0 10.4 96 0.3 ENE 6 11 3 6 - - 0.2
20/05:28am 10.9 9.7 10.3 96 0.3 NE 7 11 4 6 - - 0.2
20/05:00am 11.1 10.2 10.5 96 0.3 NE 6 7 3 4 - - 0.2
20/04:30am 11.2 10.3 10.6 96 0.3 NE 6 9 3 5 - - 0.2
20/04:05am 11.3 10.7 10.5 95 0.4 NE 4 7 2 4 - - 0.2
20/04:00am 11.3 11.1 10.5 95 0.4 NE 2 6 1 3 - - 0.2
20/03:30am 11.7 10.9 11.1 96 0.3 NE 6 9 3 5 - - 0.2
20/03:00am 11.9 11.0 11.3 96 0.3 NE 7 13 4 7 - - 0.2
20/02:30am 11.3 10.7 10.4 94 0.5 ENE 4 7 2 4 - - 0.2
20/02:00am 11.9 10.9 11.1 95 0.4 NE 7 9 4 5 - - 0.2
20/01:30am 12.1 11.2 11.5 96 0.3 ENE 7 13 4 7 - - 0.2
20/01:00am 12.2 11.0 11.6 96 0.3 ENE 9 15 5 8 - - 0.2
20/12:30am 12.1 11.4 11.5 96 0.3 ENE 6 9 3 5 - - 0.2
20/12:00am 12.4 11.6 11.8 96 0.3 ENE 7 9 4 5 - - 0.2
 
Date/Time
EST
Temp
°C
App
Temp
°C
Dew
Point
°C
Rel
Hum
%
Delta-T
°C
Wind Press
QNH
hPa
Press
MSL
hPa
Rain since
9am
mm
Dir  Spd
km/h
Gust
km/h
Spd
kts
Gust
kts
19/11:30pm 12.4 11.3 11.9 97 0.3 NE 9 15 5 8 - - 0.2
19/11:00pm 12.4 10.9 11.8 96 0.3 NE 11 17 6 9 - - 0.2
19/10:30pm 12.5 11.0 11.9 96 0.3 ENE 11 15 6 8 - - 0.2
19/10:15pm 12.5 11.3 11.7 95 0.4 ENE 9 11 5 6 - - 0.2
19/10:00pm 12.3 11.1 11.5 95 0.4 NE 9 13 5 7 - - 0.2
19/09:56pm 12.4 11.2 11.6 95 0.4 ENE 9 11 5 6 - - 0.2
19/09:30pm 12.6 11.5 11.8 95 0.5 NE 9 15 5 8 - - 0.2
19/09:00pm 12.6 11.4 11.7 94 0.5 NE 9 11 5 6 - - 0.2

Other formats

Comma delimited format used in spreadsheet applications
http://www.bom.gov.au/fwo/IDN60801/IDN60801.94743.axf

JavaScript Object Notation format (JSON) in row-major order
http://www.bom.gov.au/fwo/IDN60801/IDN60801.94743.json

Data quality

Most of these data are generated automatically and are frequently updated. Quality checks on data are not normally performed. It is possible for incorrect values to appear. Refer to information at About Latest Weather Observations and please check the disclaimer before using these data.